createdAt,value
2018-11-26T00:02:24.370Z,14.83
2018-11-26T00:04:52.519Z,14.00
2018-11-26T00:07:20.686Z,14.30
2018-11-26T00:09:48.859Z,13.77
2018-11-26T00:12:17.263Z,14.03
2018-11-26T00:14:45.422Z,14.33
2018-11-26T00:17:13.588Z,13.53
2018-11-26T00:19:41.759Z,14.57
2018-11-26T00:22:09.943Z,14.47
2018-11-26T00:24:38.102Z,14.20
2018-11-26T00:27:06.256Z,14.07
2018-11-26T00:29:34.430Z,15.80
2018-11-26T00:32:02.593Z,14.30
2018-11-26T00:34:30.759Z,14.03
2018-11-26T00:36:58.902Z,14.70
2018-11-26T00:39:27.059Z,13.07
2018-11-26T00:41:55.203Z,13.50
2018-11-26T00:44:23.383Z,14.80
2018-11-26T00:46:51.547Z,12.97
2018-11-26T00:49:19.731Z,13.03
2018-11-26T00:51:47.879Z,14.27
2018-11-26T00:54:16.052Z,13.60
2018-11-26T00:56:44.207Z,12.93
2018-11-26T00:59:12.367Z,13.50
2018-11-26T01:01:40.519Z,12.53
2018-11-26T01:04:08.688Z,12.50
2018-11-26T01:06:36.899Z,12.40
2018-11-26T01:09:05.958Z,13.30
2018-11-26T01:11:34.103Z,12.13
2018-11-26T01:14:02.303Z,13.43
2018-11-26T01:16:30.447Z,13.47
2018-11-26T01:18:58.623Z,12.20
2018-11-26T01:21:26.875Z,13.10
2018-11-26T01:23:55.059Z,12.30
2018-11-26T01:26:23.213Z,12.10
2018-11-26T01:28:51.385Z,13.50
2018-11-26T01:31:19.532Z,12.37
2018-11-26T01:33:47.695Z,12.07
2018-11-26T01:36:15.840Z,13.07
2018-11-26T01:38:44.015Z,12.37
2018-11-26T01:41:12.159Z,12.60
2018-11-26T01:43:40.343Z,13.10
2018-11-26T01:46:08.491Z,13.10
2018-11-26T01:48:36.651Z,13.20
2018-11-26T01:51:04.967Z,12.30
2018-11-26T01:53:33.140Z,13.57
2018-11-26T01:56:01.286Z,12.53
2018-11-26T01:58:29.458Z,12.97
2018-11-26T02:00:57.603Z,12.70
2018-11-26T02:03:25.770Z,11.30
2018-11-26T02:05:54.003Z,11.80
2018-11-26T02:08:22.152Z,13.13
2018-11-26T02:10:50.319Z,12.63
2018-11-26T02:13:18.463Z,11.20
2018-11-26T02:15:46.631Z,11.37
2018-11-26T02:18:14.781Z,10.80
2018-11-26T02:20:42.942Z,11.67
2018-11-26T02:23:11.090Z,11.07
2018-11-26T02:25:39.278Z,11.27
2018-11-26T02:28:07.446Z,10.90
2018-11-26T02:30:35.616Z,11.50
2018-11-26T02:33:03.779Z,11.00
2018-11-26T02:35:31.955Z,11.33
2018-11-26T02:38:00.113Z,12.40
2018-11-26T02:40:29.040Z,10.00
2018-11-26T02:42:57.219Z,10.67
2018-11-26T02:45:25.674Z,10.83
2018-11-26T02:47:53.834Z,11.03
2018-11-26T02:50:22.006Z,10.87
2018-11-26T02:52:50.167Z,10.67
2018-11-26T02:55:18.353Z,10.70
2018-11-26T02:57:46.528Z,10.73
2018-11-26T03:00:14.747Z,10.97
2018-11-26T03:02:42.912Z,10.77
2018-11-26T03:05:12.441Z,11.23
2018-11-26T03:07:40.584Z,11.50
2018-11-26T03:10:09.244Z,10.80
2018-11-26T03:12:37.640Z,11.30
2018-11-26T03:15:07.862Z,10.30
2018-11-26T03:17:36.007Z,12.13
2018-11-26T03:20:05.004Z,10.87
2018-11-26T03:22:33.176Z,12.00
2018-11-26T03:25:01.364Z,11.10
2018-11-26T03:27:29.510Z,11.50
2018-11-26T03:29:57.680Z,10.73
2018-11-26T03:32:25.840Z,10.83
2018-11-26T03:34:54.016Z,11.93
2018-11-26T03:37:22.159Z,11.63
2018-11-26T03:39:50.326Z,9.67
2018-11-26T03:42:18.483Z,10.13
2018-11-26T03:44:46.643Z,10.37
2018-11-26T03:47:14.795Z,10.33
2018-11-26T03:49:43.260Z,9.50
2018-11-26T03:52:11.423Z,10.20
2018-11-26T03:54:39.560Z,9.60
2018-11-26T03:57:07.741Z,10.90
2018-11-26T03:59:35.894Z,9.47
2018-11-26T04:02:04.096Z,9.63
2018-11-26T04:04:32.254Z,9.30
2018-11-26T04:07:00.438Z,8.73
2018-11-26T04:09:28.603Z,9.33
2018-11-26T04:11:56.767Z,9.40
2018-11-26T04:14:24.922Z,8.57
2018-11-26T04:16:53.099Z,9.40
2018-11-26T04:19:21.275Z,8.93
2018-11-26T04:21:49.449Z,8.67
2018-11-26T04:24:17.583Z,9.30
2018-11-26T04:26:45.771Z,9.07
2018-11-26T04:29:14.556Z,8.17
2018-11-26T04:31:42.740Z,9.40
2018-11-26T04:34:10.880Z,9.00
2018-11-26T04:36:39.907Z,10.73
2018-11-26T04:39:08.059Z,8.77
2018-11-26T04:41:36.234Z,8.57
2018-11-26T04:44:04.387Z,8.80
2018-11-26T04:46:32.560Z,9.90
2018-11-26T04:49:00.724Z,9.80
2018-11-26T04:51:28.913Z,9.70
2018-11-26T04:53:57.072Z,8.13
2018-11-26T04:56:25.239Z,8.50
2018-11-26T04:58:53.386Z,9.60
2018-11-26T05:01:21.564Z,9.63
2018-11-26T05:03:49.726Z,8.80
2018-11-26T05:06:17.892Z,9.00
2018-11-26T05:08:46.051Z,9.77
2018-11-26T05:11:14.231Z,10.83
2018-11-26T05:13:42.389Z,10.57
2018-11-26T05:16:10.545Z,10.43
2018-11-26T05:18:38.703Z,10.73
2018-11-26T05:21:06.876Z,11.07
2018-11-26T05:23:35.044Z,10.07
2018-11-26T05:26:03.244Z,10.70
2018-11-26T05:28:31.419Z,11.30
2018-11-26T05:30:59.608Z,12.03
2018-11-26T05:33:27.754Z,10.80
2018-11-26T05:35:55.899Z,11.87
2018-11-26T05:38:24.059Z,12.27
2018-11-26T05:40:52.210Z,12.57
2018-11-26T05:43:20.371Z,12.37
2018-11-26T05:45:48.519Z,11.97
2018-11-26T05:48:16.686Z,12.17
2018-11-26T05:50:44.852Z,11.70
2018-11-26T05:53:13.023Z,12.10
2018-11-26T05:55:41.171Z,11.30
2018-11-26T05:58:09.342Z,12.47
2018-11-26T06:00:37.535Z,12.00
2018-11-26T06:03:05.960Z,12.60
2018-11-26T06:05:34.339Z,13.20
2018-11-26T06:08:02.503Z,12.30
2018-11-26T06:10:30.670Z,12.97
2018-11-26T06:12:58.836Z,11.83
2018-11-26T06:15:26.982Z,12.20
2018-11-26T06:17:55.147Z,12.60
2018-11-26T06:20:23.295Z,12.80
2018-11-26T06:22:51.487Z,12.73
2018-11-26T06:25:20.104Z,13.10
2018-11-26T06:27:48.434Z,13.03
2018-11-26T06:30:17.050Z,12.43
2018-11-26T06:32:45.481Z,12.23
2018-11-26T06:35:18.063Z,11.83
2018-11-26T06:37:46.247Z,12.67
2018-11-26T06:40:14.424Z,13.20
2018-11-26T06:42:42.608Z,11.63
2018-11-26T06:45:11.605Z,12.30
2018-11-26T06:47:39.915Z,13.13
2018-11-26T06:50:08.695Z,13.23
2018-11-26T06:52:36.861Z,13.10
2018-11-26T06:55:05.591Z,13.90
2018-11-26T06:57:33.773Z,13.00
2018-11-26T07:00:01.966Z,13.90
2018-11-26T07:02:30.131Z,13.57
2018-11-26T07:04:58.274Z,13.10
2018-11-26T07:07:26.448Z,15.20
2018-11-26T07:09:54.607Z,13.77
2018-11-26T07:12:22.779Z,13.97
2018-11-26T07:14:51.004Z,14.87
2018-11-26T07:17:19.183Z,14.43
2018-11-26T07:19:47.335Z,13.80
2018-11-26T07:22:15.499Z,14.77
2018-11-26T07:24:43.699Z,17.07
2018-11-26T07:27:11.880Z,13.90
2018-11-26T07:29:40.059Z,14.07
2018-11-26T07:32:08.223Z,14.83
2018-11-26T07:34:36.411Z,16.07
2018-11-26T07:37:04.723Z,14.83
2018-11-26T07:39:32.891Z,15.60
2018-11-26T07:42:01.053Z,16.00
2018-11-26T07:44:29.255Z,18.07
2018-11-26T07:46:57.412Z,17.17
2018-11-26T07:49:25.599Z,16.40
2018-11-26T07:51:53.747Z,15.73
2018-11-26T07:54:21.928Z,15.73
2018-11-26T07:56:50.092Z,16.77
2018-11-26T07:59:18.299Z,15.90
2018-11-26T08:01:46.471Z,16.23
2018-11-26T08:04:14.645Z,16.87
2018-11-26T08:06:42.825Z,16.43
2018-11-26T08:09:11.016Z,16.47
2018-11-26T08:11:39.179Z,16.07
2018-11-26T08:14:07.373Z,16.70
2018-11-26T08:16:35.533Z,16.30
2018-11-26T08:19:03.712Z,16.30
2018-11-26T08:21:31.883Z,17.07
2018-11-26T08:24:00.064Z,15.80
2018-11-26T08:26:28.227Z,16.93
2018-11-26T08:28:56.406Z,16.80
2018-11-26T08:31:24.571Z,16.90
2018-11-26T08:33:52.804Z,17.30
2018-11-26T08:36:26.343Z,16.77
2018-11-26T08:38:59.930Z,16.17
2018-11-26T08:41:33.447Z,15.63
2018-11-26T08:44:09.585Z,17.13
2018-11-26T08:46:40.599Z,17.87
2018-11-26T08:49:16.984Z,16.97
2018-11-26T08:51:45.131Z,19.03
2018-11-26T08:54:13.323Z,15.77
2018-11-26T08:56:41.478Z,17.23
2018-11-26T08:59:09.650Z,15.30
2018-11-26T09:01:44.087Z,15.67
2018-11-26T09:04:17.732Z,13.10
2018-11-26T09:06:45.916Z,14.13
2018-11-26T09:09:14.075Z,13.83
2018-11-26T09:11:42.255Z,14.40
2018-11-26T09:14:10.407Z,14.07
2018-11-26T09:16:38.580Z,12.60
2018-11-26T09:19:06.754Z,14.30
2018-11-26T09:21:34.931Z,12.90
2018-11-26T09:24:03.079Z,12.47
2018-11-26T09:26:31.283Z,13.70
2018-11-26T09:28:59.439Z,13.17
2018-11-26T09:31:27.619Z,13.87
2018-11-26T09:33:55.799Z,13.00
2018-11-26T09:36:24.015Z,13.80
2018-11-26T09:38:52.197Z,11.77
2018-11-26T09:41:20.382Z,13.37
2018-11-26T09:43:48.554Z,12.33
2018-11-26T09:46:16.731Z,13.00
2018-11-26T09:48:44.891Z,15.50
2018-11-26T09:51:14.372Z,12.23
2018-11-26T09:53:41.291Z,13.67
2018-11-26T09:56:09.484Z,15.17
2018-11-26T09:58:37.648Z,13.63
2018-11-26T10:01:05.819Z,13.57
2018-11-26T10:03:33.976Z,14.50
2018-11-26T10:06:02.159Z,14.50
2018-11-26T10:08:30.321Z,12.30
2018-11-26T10:10:58.512Z,13.03
2018-11-26T10:13:26.676Z,13.80
2018-11-26T10:15:54.859Z,13.43
2018-11-26T10:18:23.013Z,13.03
2018-11-26T10:20:51.174Z,13.13
2018-11-26T10:23:19.372Z,13.57
2018-11-26T10:25:47.539Z,15.20
2018-11-26T10:28:15.734Z,14.80
2018-11-26T10:30:43.900Z,13.87
2018-11-26T10:33:14.899Z,14.80
2018-11-26T10:35:40.296Z,15.00
2018-11-26T10:38:08.472Z,14.10
2018-11-26T10:40:39.044Z,12.23
2018-11-26T10:43:11.546Z,12.97
2018-11-26T10:45:35.579Z,13.80
2018-11-26T10:48:03.839Z,13.50
2018-11-26T10:50:32.004Z,14.70
2018-11-26T10:53:00.171Z,13.93
2018-11-26T10:55:29.915Z,14.37
2018-11-26T10:57:58.123Z,12.93
2018-11-26T11:00:31.539Z,12.90
2018-11-26T11:02:59.732Z,13.23
2018-11-26T11:05:27.916Z,14.60
2018-11-26T11:07:56.097Z,12.30
2018-11-26T11:10:24.835Z,15.00
2018-11-26T11:12:53.040Z,14.47
2018-11-26T11:15:21.252Z,15.17
2018-11-26T11:17:49.432Z,12.63
2018-11-26T11:20:20.047Z,15.20
2018-11-26T11:22:48.914Z,15.50
2018-11-26T11:25:17.389Z,14.13
2018-11-26T11:27:45.678Z,15.33
2018-11-26T11:30:18.208Z,14.43
2018-11-26T11:32:46.400Z,14.57
2018-11-26T11:35:14.796Z,15.40
2018-11-26T11:37:43.308Z,15.03
2018-11-26T11:40:12.212Z,14.40
2018-11-26T11:42:40.405Z,15.07
2018-11-26T11:45:09.313Z,14.50
2018-11-26T11:47:37.501Z,14.37
2018-11-26T11:50:07.312Z,15.60
2018-11-26T11:52:35.524Z,14.70
2018-11-26T11:55:03.721Z,14.87
2018-11-26T11:57:31.961Z,15.27
2018-11-26T12:00:00.129Z,14.27
2018-11-26T12:02:28.372Z,12.60
2018-11-26T12:04:56.557Z,14.17
2018-11-26T12:07:24.724Z,13.80
2018-11-26T12:09:52.949Z,14.50
2018-11-26T12:12:21.189Z,13.13
2018-11-26T12:14:49.385Z,13.37
2018-11-26T12:17:17.561Z,13.93
2018-11-26T12:19:45.744Z,13.80
2018-11-26T12:22:13.917Z,13.77
2018-11-26T12:24:42.199Z,12.63
2018-11-26T12:27:10.404Z,12.20
2018-11-26T12:29:38.596Z,12.70
2018-11-26T12:32:06.776Z,11.43
2018-11-26T12:34:34.953Z,11.13
2018-11-26T12:37:03.168Z,10.47
2018-11-26T12:39:31.344Z,10.47
2018-11-26T12:42:04.151Z,10.17
2018-11-26T12:44:32.145Z,8.97
2018-11-26T12:47:00.309Z,8.93
2018-11-26T12:49:28.488Z,7.83
2018-11-26T12:51:56.664Z,8.70
2018-11-26T12:54:25.784Z,8.90
2018-11-26T12:56:53.057Z,7.70
2018-11-26T12:59:21.253Z,8.60
2018-11-26T13:01:49.432Z,8.90
2018-11-26T13:04:17.632Z,7.90
2018-11-26T13:06:45.802Z,9.17
2018-11-26T13:09:14.028Z,8.00
2018-11-26T13:11:42.204Z,8.30
2018-11-26T13:14:10.405Z,7.57
2018-11-26T13:16:38.584Z,7.83
2018-11-26T13:19:06.753Z,7.60
2018-11-26T13:21:34.933Z,8.50
2018-11-26T13:24:03.123Z,8.23
2018-11-26T13:26:31.294Z,8.60
2018-11-26T13:28:59.484Z,7.80
2018-11-26T13:31:27.642Z,7.57
2018-11-26T13:33:55.833Z,8.20
2018-11-26T13:36:23.993Z,8.30
2018-11-26T13:38:52.217Z,9.00
2018-11-26T13:41:20.390Z,8.43
2018-11-26T13:43:48.540Z,9.13
2018-11-26T13:46:16.724Z,9.93
2018-11-26T13:48:44.887Z,9.47
2018-11-26T13:51:13.065Z,8.80
2018-11-26T13:53:41.217Z,9.23
2018-11-26T13:56:09.401Z,9.77
2018-11-26T13:58:37.562Z,8.83
2018-11-26T14:01:05.931Z,9.40
2018-11-26T14:03:34.098Z,9.50
2018-11-26T14:06:02.273Z,8.77
2018-11-26T14:08:30.467Z,10.23
2018-11-26T14:10:58.637Z,9.80
2018-11-26T14:13:26.811Z,9.70
2018-11-26T14:15:55.024Z,9.47
2018-11-26T14:18:23.212Z,10.50
2018-11-26T14:20:51.416Z,10.07
2018-11-26T14:23:19.589Z,9.90
2018-11-26T14:25:47.796Z,10.47
2018-11-26T14:28:15.949Z,10.40
2018-11-26T14:30:44.133Z,10.93
2018-11-26T14:33:12.292Z,9.30
2018-11-26T14:35:40.484Z,10.30
2018-11-26T14:38:08.904Z,9.60
2018-11-26T14:40:40.980Z,9.47
2018-11-26T14:43:09.140Z,8.87
2018-11-26T14:45:37.340Z,9.93
2018-11-26T14:48:05.757Z,11.17
2018-11-26T14:50:33.945Z,10.97
2018-11-26T14:53:05.829Z,11.33
2018-11-26T14:55:34.728Z,11.00
2018-11-26T14:58:02.908Z,10.93
2018-11-26T15:00:31.120Z,10.93
2018-11-26T15:02:59.293Z,10.20
2018-11-26T15:05:27.497Z,11.53
2018-11-26T15:07:55.682Z,10.90
2018-11-26T15:10:24.471Z,11.17
2018-11-26T15:12:52.700Z,11.53
2018-11-26T15:15:23.012Z,11.77
2018-11-26T15:17:51.325Z,11.17
2018-11-26T15:20:19.969Z,11.90
2018-11-26T15:22:48.264Z,11.57
2018-11-26T15:25:17.069Z,11.97
2018-11-26T15:27:45.252Z,11.67
2018-11-26T15:30:15.973Z,11.80
2018-11-26T15:32:44.195Z,10.77
2018-11-26T15:35:12.984Z,11.37
2018-11-26T15:37:41.217Z,12.77
2018-11-26T15:40:17.268Z,10.30
2018-11-26T15:42:45.523Z,10.30
2018-11-26T15:45:19.577Z,11.97
2018-11-26T15:47:47.897Z,10.30
2018-11-26T15:50:16.084Z,10.93
2018-11-26T15:52:44.265Z,12.30
2018-11-26T15:55:12.850Z,9.47
2018-11-26T15:57:41.409Z,9.77
2018-11-26T16:00:11.387Z,10.37
2018-11-26T16:02:39.592Z,9.10
2018-11-26T16:05:08.556Z,10.23
2018-11-26T16:07:36.844Z,9.47
2018-11-26T16:10:05.742Z,8.73
2018-11-26T16:12:33.928Z,9.63
2018-11-26T16:15:02.103Z,9.57
2018-11-26T16:17:30.311Z,8.87
2018-11-26T16:19:58.453Z,9.80
2018-11-26T16:22:26.648Z,12.27
2018-11-26T16:24:54.812Z,11.63
2018-11-26T16:27:23.002Z,13.90
2018-11-26T16:29:51.189Z,10.10
2018-11-26T16:32:19.402Z,9.63
2018-11-26T16:34:47.572Z,26.67
2018-11-26T16:37:15.769Z,10.57
2018-11-26T16:39:43.940Z,10.13
2018-11-26T16:42:12.108Z,12.00
2018-11-26T16:44:40.292Z,14.20
2018-11-26T16:47:08.463Z,11.13
2018-11-26T16:49:36.613Z,9.33
2018-11-26T16:52:05.117Z,9.20
2018-11-26T16:54:33.278Z,10.37
2018-11-26T16:57:01.459Z,9.30
2018-11-26T16:59:29.618Z,8.67
2018-11-26T17:01:57.805Z,9.30
2018-11-26T17:04:25.972Z,16.83
2018-11-26T17:06:54.183Z,10.77
2018-11-26T17:09:22.348Z,6.77
2018-11-26T17:11:50.528Z,8.63
2018-11-26T17:14:18.688Z,9.70
2018-11-26T17:16:46.841Z,7.80
2018-11-26T17:19:15.045Z,16.03
2018-11-26T17:21:43.221Z,7.60
2018-11-26T17:24:11.408Z,8.37
2018-11-26T17:26:39.569Z,7.70
2018-11-26T17:29:07.739Z,6.57
2018-11-26T17:31:35.889Z,6.57
2018-11-26T17:34:04.358Z,6.40
2018-11-26T17:36:32.517Z,6.10
2018-11-26T17:39:00.685Z,6.73
2018-11-26T17:41:28.846Z,6.70
2018-11-26T17:43:57.034Z,6.77
2018-11-26T17:46:25.201Z,6.40
2018-11-26T17:48:53.384Z,7.43
2018-11-26T17:51:21.545Z,6.60
2018-11-26T17:53:49.761Z,6.57
2018-11-26T17:56:17.945Z,6.40
2018-11-26T17:58:46.129Z,6.40
2018-11-26T18:01:16.761Z,6.17
2018-11-26T18:03:44.936Z,7.07
2018-11-26T18:06:13.084Z,6.83
2018-11-26T18:08:41.265Z,6.53
2018-11-26T18:11:09.459Z,6.80
2018-11-26T18:13:37.642Z,7.03
2018-11-26T18:16:06.097Z,6.57
2018-11-26T18:18:34.269Z,7.13
2018-11-26T18:21:02.428Z,7.27
2018-11-26T18:23:30.604Z,8.27
2018-11-26T18:25:58.769Z,7.93
2018-11-26T18:28:28.154Z,8.27
2018-11-26T18:30:55.148Z,8.00
2018-11-26T18:33:23.333Z,8.20
2018-11-26T18:35:51.489Z,6.50
2018-11-26T18:38:19.673Z,7.30
2018-11-26T18:40:48.720Z,8.17
2018-11-26T18:43:16.897Z,11.20
2018-11-26T18:45:45.052Z,9.93
2018-11-26T18:48:13.716Z,9.17
2018-11-26T18:50:41.884Z,10.37
2018-11-26T18:53:10.065Z,23.03
2018-11-26T18:55:38.768Z,13.43
2018-11-26T18:58:06.990Z,13.77
2018-11-26T19:00:36.984Z,13.60
2018-11-26T19:03:05.699Z,12.63
2018-11-26T19:05:33.885Z,10.53
2018-11-26T19:08:02.065Z,12.53
2018-11-26T19:10:30.784Z,10.13
2018-11-26T19:13:06.610Z,12.20
2018-11-26T19:15:35.664Z,13.27
2018-11-26T19:18:09.434Z,10.23
2018-11-26T19:20:37.635Z,9.53
2018-11-26T19:23:05.851Z,9.57
2018-11-26T19:25:34.028Z,9.27
2018-11-26T19:28:02.236Z,9.40
2018-11-26T19:30:30.421Z,10.30
2018-11-26T19:32:58.594Z,10.83
2018-11-26T19:35:26.785Z,11.70
2018-11-26T19:37:54.961Z,10.63
2018-11-26T19:40:23.141Z,12.00
2018-11-26T19:42:51.309Z,11.80
2018-11-26T19:45:20.195Z,11.70
2018-11-26T19:47:48.425Z,12.23
2018-11-26T19:50:17.179Z,13.10
2018-11-26T19:52:45.740Z,10.90
2018-11-26T19:55:14.764Z,11.33
2018-11-26T19:57:42.936Z,11.90
2018-11-26T20:00:12.707Z,11.20
2018-11-26T20:02:40.892Z,12.47
2018-11-26T20:05:40.864Z,12.27
2018-11-26T20:08:09.031Z,13.00
2018-11-26T20:10:37.218Z,13.63
2018-11-26T20:13:05.541Z,25.70
2018-11-26T20:15:33.732Z,17.87
2018-11-26T20:18:01.892Z,20.07
2018-11-26T20:20:30.074Z,15.77
2018-11-26T20:22:58.236Z,11.60
2018-11-26T20:25:26.412Z,11.50
2018-11-26T20:27:54.568Z,12.60
2018-11-26T20:30:22.748Z,17.00
2018-11-26T20:32:50.911Z,15.47
2018-11-26T20:35:19.081Z,17.50
2018-11-26T20:37:47.244Z,12.73
2018-11-26T20:40:15.918Z,12.43
2018-11-26T20:42:46.140Z,13.13
2018-11-26T20:45:14.668Z,14.20
2018-11-26T20:47:42.848Z,14.10
2018-11-26T20:50:46.520Z,13.93
2018-11-26T20:53:15.528Z,13.60
2018-11-26T20:55:43.718Z,14.00
2018-11-26T20:58:11.885Z,13.00
2018-11-26T21:00:40.502Z,13.00
2018-11-26T21:03:09.723Z,13.77
2018-11-26T21:05:38.161Z,12.77
2018-11-26T21:08:06.384Z,12.53
2018-11-26T21:10:34.585Z,12.23
2018-11-26T21:13:02.797Z,12.97
2018-11-26T21:15:30.949Z,12.27
2018-11-26T21:17:59.523Z,12.13
2018-11-26T21:20:28.525Z,13.20
2018-11-26T21:22:57.401Z,12.70
2018-11-26T21:25:25.266Z,12.37
2018-11-26T21:27:53.457Z,12.10
2018-11-26T21:30:21.620Z,12.53
2018-11-26T21:32:49.808Z,13.47
2018-11-26T21:35:18.433Z,13.27
2018-11-26T21:37:47.334Z,12.40
2018-11-26T21:40:20.283Z,14.80
2018-11-26T21:42:44.147Z,13.03
2018-11-26T21:45:13.017Z,13.23
2018-11-26T21:47:41.197Z,13.77
2018-11-26T21:50:10.113Z,12.57
2018-11-26T21:52:38.321Z,13.63
2018-11-26T21:55:07.993Z,15.10
2018-11-26T21:57:36.184Z,14.07
2018-11-26T22:00:07.144Z,13.93
2018-11-26T22:02:35.665Z,13.70
2018-11-26T22:05:03.821Z,13.60
2018-11-26T22:07:32.009Z,14.40
2018-11-26T22:10:00.164Z,15.83
2018-11-26T22:12:28.333Z,14.73
2018-11-26T22:14:56.501Z,15.07
2018-11-26T22:17:24.676Z,15.10
2018-11-26T22:19:52.849Z,15.40
2018-11-26T22:22:21.041Z,14.17
2018-11-26T22:24:49.192Z,14.87
2018-11-26T22:27:17.376Z,14.37
2018-11-26T22:29:45.556Z,15.40
2018-11-26T22:32:13.739Z,15.10
2018-11-26T22:34:41.905Z,15.37
2018-11-26T22:37:10.081Z,16.57
2018-11-26T22:39:38.248Z,16.47
2018-11-26T22:42:06.421Z,17.10
2018-11-26T22:44:34.605Z,16.40
2018-11-26T22:47:02.756Z,16.13
2018-11-26T22:49:30.956Z,15.50
2018-11-26T22:51:59.109Z,15.73
2018-11-26T22:54:27.289Z,14.37
2018-11-26T22:56:55.454Z,14.63
2018-11-26T22:59:23.641Z,15.17
2018-11-26T23:01:51.813Z,14.10
2018-11-26T23:04:19.988Z,15.60
2018-11-26T23:06:48.143Z,15.30
2018-11-26T23:09:16.320Z,15.93
2018-11-26T23:11:44.468Z,15.37
2018-11-26T23:14:12.664Z,14.87
2018-11-26T23:16:41.833Z,15.60
2018-11-26T23:19:10.028Z,15.13
2018-11-26T23:21:38.184Z,15.70
2018-11-26T23:24:06.385Z,15.37
2018-11-26T23:26:34.532Z,15.40
2018-11-26T23:29:02.721Z,16.23
2018-11-26T23:31:30.876Z,14.27
2018-11-26T23:33:59.053Z,15.37
2018-11-26T23:36:27.269Z,15.63
2018-11-26T23:38:55.436Z,15.70
2018-11-26T23:41:23.615Z,16.40
2018-11-26T23:43:51.793Z,16.00
2018-11-26T23:46:19.963Z,15.00
2018-11-26T23:48:48.151Z,17.37
2018-11-26T23:51:16.301Z,15.43
2018-11-26T23:53:44.470Z,14.97
2018-11-26T23:56:12.625Z,16.63
2018-11-26T23:58:40.809Z,13.17
